sensor_id;sensor_type;location;lat;lon;timestamp;P1;durP1;ratioP1;P2;durP2;ratioP2
31872;SDS011;22407;42.820;23.374;2023-07-09T00:00:02;12.47;;;6.30;;
31872;SDS011;22407;42.820;23.374;2023-07-09T00:02:28;12.47;;;6.27;;
31872;SDS011;22407;42.820;23.374;2023-07-09T00:04:53;11.77;;;6.20;;
31872;SDS011;22407;42.820;23.374;2023-07-09T00:07:22;11.45;;;6.57;;
31872;SDS011;22407;42.820;23.374;2023-07-09T00:09:49;11.23;;;6.30;;
31872;SDS011;22407;42.820;23.374;2023-07-09T00:12:15;11.95;;;6.97;;
31872;SDS011;22407;42.820;23.374;2023-07-09T00:14:40;12.55;;;6.88;;
31872;SDS011;22407;42.820;23.374;2023-07-09T00:17:17;11.90;;;7.20;;
31872;SDS011;22407;42.820;23.374;2023-07-09T00:19:42;13.25;;;7.63;;
31872;SDS011;22407;42.820;23.374;2023-07-09T00:22:18;12.15;;;7.28;;
31872;SDS011;22407;42.820;23.374;2023-07-09T00:24:44;13.43;;;7.20;;
31872;SDS011;22407;42.820;23.374;2023-07-09T00:27:10;12.43;;;6.80;;
31872;SDS011;22407;42.820;23.374;2023-07-09T00:29:36;11.82;;;6.80;;
31872;SDS011;22407;42.820;23.374;2023-07-09T00:32:01;12.07;;;7.40;;
31872;SDS011;22407;42.820;23.374;2023-07-09T00:34:26;12.27;;;7.57;;
31872;SDS011;22407;42.820;23.374;2023-07-09T00:36:52;11.83;;;7.60;;
31872;SDS011;22407;42.820;23.374;2023-07-09T00:39:22;13.13;;;7.20;;
31872;SDS011;22407;42.820;23.374;2023-07-09T00:41:48;10.77;;;6.40;;
31872;SDS011;22407;42.820;23.374;2023-07-09T00:49:05;10.30;;;6.30;;
31872;SDS011;22407;42.820;23.374;2023-07-09T00:51:30;12.60;;;6.50;;
31872;SDS011;22407;42.820;23.374;2023-07-09T00:53:58;11.80;;;6.38;;
31872;SDS011;22407;42.820;23.374;2023-07-09T00:56:33;11.60;;;6.00;;
31872;SDS011;22407;42.820;23.374;2023-07-09T00:59:00;12.43;;;6.85;;
31872;SDS011;22407;42.820;23.374;2023-07-09T01:01:29;12.65;;;6.95;;
31872;SDS011;22407;42.820;23.374;2023-07-09T01:03:56;11.20;;;6.60;;
31872;SDS011;22407;42.820;23.374;2023-07-09T01:06:27;11.65;;;6.70;;
31872;SDS011;22407;42.820;23.374;2023-07-09T01:08:55;13.10;;;6.50;;
31872;SDS011;22407;42.820;23.374;2023-07-09T01:11:21;12.55;;;7.40;;
31872;SDS011;22407;42.820;23.374;2023-07-09T01:14:00;13.82;;;7.20;;
31872;SDS011;22407;42.820;23.374;2023-07-09T01:16:37;12.03;;;6.93;;
31872;SDS011;22407;42.820;23.374;2023-07-09T01:19:03;11.98;;;6.43;;
31872;SDS011;22407;42.820;23.374;2023-07-09T01:21:29;12.05;;;6.90;;
31872;SDS011;22407;42.820;23.374;2023-07-09T01:23:54;12.77;;;6.60;;
31872;SDS011;22407;42.820;23.374;2023-07-09T01:26:21;12.80;;;6.67;;
31872;SDS011;22407;42.820;23.374;2023-07-09T01:28:50;12.23;;;6.60;;
31872;SDS011;22407;42.820;23.374;2023-07-09T01:31:15;11.37;;;6.10;;
31872;SDS011;22407;42.820;23.374;2023-07-09T01:33:43;11.53;;;6.23;;
31872;SDS011;22407;42.820;23.374;2023-07-09T01:36:13;12.55;;;6.82;;
31872;SDS011;22407;42.820;23.374;2023-07-09T01:38:39;14.03;;;7.23;;
31872;SDS011;22407;42.820;23.374;2023-07-09T01:41:04;14.30;;;6.63;;
31872;SDS011;22407;42.820;23.374;2023-07-09T01:43:32;13.97;;;7.13;;
31872;SDS011;22407;42.820;23.374;2023-07-09T01:45:58;14.63;;;7.37;;
31872;SDS011;22407;42.820;23.374;2023-07-09T01:48:24;13.95;;;7.55;;
31872;SDS011;22407;42.820;23.374;2023-07-09T01:50:49;13.43;;;7.53;;
31872;SDS011;22407;42.820;23.374;2023-07-09T01:53:15;13.52;;;7.10;;
31872;SDS011;22407;42.820;23.374;2023-07-09T01:55:41;13.90;;;7.25;;
31872;SDS011;22407;42.820;23.374;2023-07-09T01:58:07;12.80;;;7.23;;
31872;SDS011;22407;42.820;23.374;2023-07-09T02:00:33;13.93;;;7.18;;
31872;SDS011;22407;42.820;23.374;2023-07-09T02:03:00;14.80;;;7.55;;
31872;SDS011;22407;42.820;23.374;2023-07-09T02:05:27;12.18;;;6.75;;
31872;SDS011;22407;42.820;23.374;2023-07-09T02:07:52;13.33;;;6.60;;
31872;SDS011;22407;42.820;23.374;2023-07-09T02:10:17;13.57;;;7.23;;
31872;SDS011;22407;42.820;23.374;2023-07-09T02:12:43;13.40;;;7.10;;
31872;SDS011;22407;42.820;23.374;2023-07-09T02:15:08;13.13;;;6.93;;
31872;SDS011;22407;42.820;23.374;2023-07-09T02:17:34;12.32;;;7.32;;
31872;SDS011;22407;42.820;23.374;2023-07-09T02:19:59;12.37;;;6.50;;
31872;SDS011;22407;42.820;23.374;2023-07-09T02:22:25;11.77;;;6.97;;
31872;SDS011;22407;42.820;23.374;2023-07-09T02:24:50;10.17;;;5.80;;
31872;SDS011;22407;42.820;23.374;2023-07-09T02:27:19;13.55;;;6.28;;
31872;SDS011;22407;42.820;23.374;2023-07-09T02:29:44;11.13;;;6.50;;
31872;SDS011;22407;42.820;23.374;2023-07-09T02:32:10;11.85;;;6.22;;
31872;SDS011;22407;42.820;23.374;2023-07-09T02:34:38;12.73;;;6.38;;
31872;SDS011;22407;42.820;23.374;2023-07-09T02:37:03;11.53;;;5.90;;
31872;SDS011;22407;42.820;23.374;2023-07-09T02:39:28;11.80;;;6.63;;
31872;SDS011;22407;42.820;23.374;2023-07-09T02:41:53;11.70;;;6.23;;
31872;SDS011;22407;42.820;23.374;2023-07-09T02:44:19;9.77;;;6.00;;
31872;SDS011;22407;42.820;23.374;2023-07-09T02:46:44;11.30;;;6.20;;
31872;SDS011;22407;42.820;23.374;2023-07-09T02:49:11;11.80;;;6.50;;
31872;SDS011;22407;42.820;23.374;2023-07-09T02:51:36;12.18;;;6.38;;
31872;SDS011;22407;42.820;23.374;2023-07-09T02:54:02;12.93;;;7.10;;
31872;SDS011;22407;42.820;23.374;2023-07-09T02:56:28;13.23;;;6.60;;
31872;SDS011;22407;42.820;23.374;2023-07-09T02:58:53;12.13;;;6.27;;
31872;SDS011;22407;42.820;23.374;2023-07-09T03:01:19;11.23;;;6.10;;
31872;SDS011;22407;42.820;23.374;2023-07-09T03:03:49;13.95;;;6.90;;
31872;SDS011;22407;42.820;23.374;2023-07-09T03:06:15;11.30;;;6.30;;
31872;SDS011;22407;42.820;23.374;2023-07-09T03:08:41;11.73;;;6.18;;
31872;SDS011;22407;42.820;23.374;2023-07-09T03:11:10;11.17;;;6.40;;
31872;SDS011;22407;42.820;23.374;2023-07-09T03:13:36;11.55;;;6.40;;
31872;SDS011;22407;42.820;23.374;2023-07-09T03:16:01;12.00;;;6.13;;
31872;SDS011;22407;42.820;23.374;2023-07-09T03:18:26;12.02;;;6.20;;
31872;SDS011;22407;42.820;23.374;2023-07-09T03:20:51;12.10;;;6.27;;
31872;SDS011;22407;42.820;23.374;2023-07-09T03:23:17;11.87;;;6.60;;
31872;SDS011;22407;42.820;23.374;2023-07-09T03:25:43;12.73;;;7.07;;
31872;SDS011;22407;42.820;23.374;2023-07-09T03:28:08;11.90;;;6.73;;
31872;SDS011;22407;42.820;23.374;2023-07-09T03:30:34;12.80;;;7.07;;
31872;SDS011;22407;42.820;23.374;2023-07-09T03:32:59;12.70;;;7.40;;
31872;SDS011;22407;42.820;23.374;2023-07-09T03:35:25;10.90;;;6.20;;
31872;SDS011;22407;42.820;23.374;2023-07-09T03:37:50;11.67;;;6.50;;
31872;SDS011;22407;42.820;23.374;2023-07-09T03:40:25;11.23;;;5.70;;
31872;SDS011;22407;42.820;23.374;2023-07-09T03:42:50;10.77;;;6.13;;
31872;SDS011;22407;42.820;23.374;2023-07-09T03:45:15;13.10;;;6.20;;
31872;SDS011;22407;42.820;23.374;2023-07-09T03:47:41;10.32;;;5.95;;
31872;SDS011;22407;42.820;23.374;2023-07-09T03:50:09;12.13;;;6.40;;
31872;SDS011;22407;42.820;23.374;2023-07-09T03:52:35;11.32;;;6.22;;
31872;SDS011;22407;42.820;23.374;2023-07-09T03:55:00;11.20;;;6.30;;
31872;SDS011;22407;42.820;23.374;2023-07-09T03:57:27;13.75;;;6.32;;
31872;SDS011;22407;42.820;23.374;2023-07-09T03:59:53;11.60;;;5.97;;
31872;SDS011;22407;42.820;23.374;2023-07-09T04:02:18;10.30;;;5.53;;
31872;SDS011;22407;42.820;23.374;2023-07-09T04:04:43;11.10;;;6.07;;
31872;SDS011;22407;42.820;23.374;2023-07-09T04:07:09;9.93;;;5.70;;
31872;SDS011;22407;42.820;23.374;2023-07-09T04:09:34;11.07;;;5.70;;
31872;SDS011;22407;42.820;23.374;2023-07-09T04:11:59;11.18;;;5.88;;
31872;SDS011;22407;42.820;23.374;2023-07-09T04:14:26;11.30;;;5.97;;
31872;SDS011;22407;42.820;23.374;2023-07-09T04:16:51;10.25;;;5.90;;
31872;SDS011;22407;42.820;23.374;2023-07-09T04:19:17;10.83;;;5.47;;
31872;SDS011;22407;42.820;23.374;2023-07-09T04:21:42;11.03;;;6.03;;
31872;SDS011;22407;42.820;23.374;2023-07-09T04:24:07;12.10;;;6.30;;
31872;SDS011;22407;42.820;23.374;2023-07-09T04:26:33;13.40;;;6.30;;
31872;SDS011;22407;42.820;23.374;2023-07-09T04:28:58;13.23;;;6.63;;
31872;SDS011;22407;42.820;23.374;2023-07-09T04:31:23;12.13;;;6.50;;
31872;SDS011;22407;42.820;23.374;2023-07-09T04:33:48;11.70;;;6.10;;
31872;SDS011;22407;42.820;23.374;2023-07-09T04:36:14;12.87;;;6.80;;
31872;SDS011;22407;42.820;23.374;2023-07-09T04:38:39;12.03;;;6.90;;
31872;SDS011;22407;42.820;23.374;2023-07-09T04:41:04;11.83;;;7.00;;
31872;SDS011;22407;42.820;23.374;2023-07-09T04:43:30;13.30;;;7.20;;
31872;SDS011;22407;42.820;23.374;2023-07-09T04:45:56;12.07;;;7.10;;
31872;SDS011;22407;42.820;23.374;2023-07-09T04:48:21;12.63;;;6.77;;
31872;SDS011;22407;42.820;23.374;2023-07-09T04:50:47;12.37;;;6.90;;
31872;SDS011;22407;42.820;23.374;2023-07-09T04:53:15;13.95;;;7.78;;
31872;SDS011;22407;42.820;23.374;2023-07-09T04:55:40;14.43;;;7.97;;
31872;SDS011;22407;42.820;23.374;2023-07-09T04:58:05;11.90;;;7.47;;
31872;SDS011;22407;42.820;23.374;2023-07-09T05:00:31;11.97;;;6.90;;
31872;SDS011;22407;42.820;23.374;2023-07-09T05:02:56;15.27;;;6.67;;
31872;SDS011;22407;42.820;23.374;2023-07-09T05:05:21;12.93;;;7.70;;
31872;SDS011;22407;42.820;23.374;2023-07-09T05:07:46;13.23;;;7.27;;
31872;SDS011;22407;42.820;23.374;2023-07-09T05:10:12;11.57;;;7.50;;
31872;SDS011;22407;42.820;23.374;2023-07-09T05:12:46;12.53;;;7.00;;
31872;SDS011;22407;42.820;23.374;2023-07-09T05:15:12;11.93;;;6.97;;
31872;SDS011;22407;42.820;23.374;2023-07-09T05:17:37;12.37;;;6.80;;
31872;SDS011;22407;42.820;23.374;2023-07-09T05:20:02;12.00;;;6.77;;
31872;SDS011;22407;42.820;23.374;2023-07-09T05:22:28;12.90;;;7.50;;
31872;SDS011;22407;42.820;23.374;2023-07-09T05:24:53;12.13;;;7.33;;
31872;SDS011;22407;42.820;23.374;2023-07-09T05:27:18;11.90;;;6.73;;
31872;SDS011;22407;42.820;23.374;2023-07-09T05:29:44;11.40;;;6.83;;
31872;SDS011;22407;42.820;23.374;2023-07-09T05:32:09;11.40;;;6.53;;
31872;SDS011;22407;42.820;23.374;2023-07-09T05:34:35;12.17;;;6.30;;
31872;SDS011;22407;42.820;23.374;2023-07-09T05:37:00;10.82;;;6.10;;
31872;SDS011;22407;42.820;23.374;2023-07-09T05:39:26;9.83;;;6.10;;
31872;SDS011;22407;42.820;23.374;2023-07-09T05:41:51;9.93;;;5.70;;
31872;SDS011;22407;42.820;23.374;2023-07-09T05:44:16;11.77;;;6.30;;
31872;SDS011;22407;42.820;23.374;2023-07-09T05:46:42;10.80;;;6.20;;
31872;SDS011;22407;42.820;23.374;2023-07-09T05:49:07;10.53;;;5.93;;
31872;SDS011;22407;42.820;23.374;2023-07-09T05:51:33;10.93;;;6.13;;
31872;SDS011;22407;42.820;23.374;2023-07-09T05:53:58;11.67;;;6.30;;
31872;SDS011;22407;42.820;23.374;2023-07-09T05:56:23;10.10;;;5.70;;
31872;SDS011;22407;42.820;23.374;2023-07-09T05:58:49;9.13;;;5.50;;
31872;SDS011;22407;42.820;23.374;2023-07-09T06:01:14;9.93;;;5.35;;
31872;SDS011;22407;42.820;23.374;2023-07-09T06:03:39;11.07;;;5.40;;
31872;SDS011;22407;42.820;23.374;2023-07-09T06:06:05;9.37;;;4.40;;
31872;SDS011;22407;42.820;23.374;2023-07-09T06:08:31;9.25;;;4.70;;
31872;SDS011;22407;42.820;23.374;2023-07-09T06:11:00;8.82;;;4.70;;
31872;SDS011;22407;42.820;23.374;2023-07-09T06:13:27;8.65;;;4.53;;
31872;SDS011;22407;42.820;23.374;2023-07-09T06:15:53;8.50;;;4.53;;
31872;SDS011;22407;42.820;23.374;2023-07-09T06:18:19;10.60;;;5.10;;
31872;SDS011;22407;42.820;23.374;2023-07-09T06:20:51;8.83;;;4.90;;
31872;SDS011;22407;42.820;23.374;2023-07-09T06:23:17;11.95;;;6.15;;
31872;SDS011;22407;42.820;23.374;2023-07-09T06:25:42;10.65;;;5.53;;
31872;SDS011;22407;42.820;23.374;2023-07-09T06:28:08;9.32;;;5.18;;
31872;SDS011;22407;42.820;23.374;2023-07-09T06:30:33;10.23;;;5.00;;
31872;SDS011;22407;42.820;23.374;2023-07-09T06:32:59;9.30;;;4.77;;
31872;SDS011;22407;42.820;23.374;2023-07-09T06:35:24;9.75;;;4.97;;
31872;SDS011;22407;42.820;23.374;2023-07-09T06:37:50;9.27;;;4.80;;
31872;SDS011;22407;42.820;23.374;2023-07-09T06:40:15;12.60;;;4.80;;
31872;SDS011;22407;42.820;23.374;2023-07-09T06:42:40;9.90;;;4.60;;
31872;SDS011;22407;42.820;23.374;2023-07-09T06:45:06;9.57;;;4.90;;
31872;SDS011;22407;42.820;23.374;2023-07-09T06:47:31;9.60;;;4.77;;
31872;SDS011;22407;42.820;23.374;2023-07-09T06:49:56;10.00;;;4.57;;
31872;SDS011;22407;42.820;23.374;2023-07-09T06:52:21;8.68;;;4.85;;
31872;SDS011;22407;42.820;23.374;2023-07-09T06:54:47;8.37;;;4.50;;
31872;SDS011;22407;42.820;23.374;2023-07-09T06:57:12;9.30;;;4.60;;
31872;SDS011;22407;42.820;23.374;2023-07-09T06:59:37;9.77;;;4.77;;
31872;SDS011;22407;42.820;23.374;2023-07-09T07:02:03;9.40;;;4.45;;
31872;SDS011;22407;42.820;23.374;2023-07-09T07:04:28;9.27;;;4.47;;
31872;SDS011;22407;42.820;23.374;2023-07-09T07:06:54;9.35;;;4.68;;
31872;SDS011;22407;42.820;23.374;2023-07-09T07:09:22;8.40;;;4.30;;
31872;SDS011;22407;42.820;23.374;2023-07-09T07:11:47;8.73;;;4.20;;
31872;SDS011;22407;42.820;23.374;2023-07-09T07:14:12;7.87;;;4.20;;
31872;SDS011;22407;42.820;23.374;2023-07-09T07:16:37;7.87;;;4.17;;
31872;SDS011;22407;42.820;23.374;2023-07-09T07:19:03;11.47;;;4.10;;
31872;SDS011;22407;42.820;23.374;2023-07-09T07:21:28;7.43;;;3.80;;
31872;SDS011;22407;42.820;23.374;2023-07-09T07:23:53;7.80;;;3.80;;
31872;SDS011;22407;42.820;23.374;2023-07-09T07:26:18;8.17;;;3.63;;
31872;SDS011;22407;42.820;23.374;2023-07-09T07:28:44;8.27;;;3.67;;
31872;SDS011;22407;42.820;23.374;2023-07-09T07:31:09;8.37;;;3.43;;
31872;SDS011;22407;42.820;23.374;2023-07-09T07:33:35;8.23;;;3.50;;
31872;SDS011;22407;42.820;23.374;2023-07-09T07:36:00;9.63;;;3.30;;
31872;SDS011;22407;42.820;23.374;2023-07-09T07:38:25;7.60;;;3.60;;
31872;SDS011;22407;42.820;23.374;2023-07-09T07:40:51;7.60;;;3.50;;
31872;SDS011;22407;42.820;23.374;2023-07-09T07:43:16;7.83;;;3.40;;
31872;SDS011;22407;42.820;23.374;2023-07-09T07:45:42;7.63;;;3.30;;
31872;SDS011;22407;42.820;23.374;2023-07-09T07:48:07;7.00;;;3.50;;
31872;SDS011;22407;42.820;23.374;2023-07-09T07:50:33;9.50;;;3.43;;
31872;SDS011;22407;42.820;23.374;2023-07-09T07:52:58;10.05;;;5.22;;
31872;SDS011;22407;42.820;23.374;2023-07-09T07:55:23;10.93;;;4.60;;
31872;SDS011;22407;42.820;23.374;2023-07-09T07:57:48;9.30;;;4.73;;
31872;SDS011;22407;42.820;23.374;2023-07-09T08:00:14;9.03;;;4.00;;
31872;SDS011;22407;42.820;23.374;2023-07-09T08:02:39;7.93;;;4.13;;
31872;SDS011;22407;42.820;23.374;2023-07-09T08:05:05;11.57;;;4.63;;
31872;SDS011;22407;42.820;23.374;2023-07-09T08:07:30;9.75;;;4.05;;
31872;SDS011;22407;42.820;23.374;2023-07-09T08:09:55;8.93;;;3.67;;
31872;SDS011;22407;42.820;23.374;2023-07-09T08:12:21;9.83;;;3.83;;
31872;SDS011;22407;42.820;23.374;2023-07-09T08:14:46;9.00;;;3.87;;
31872;SDS011;22407;42.820;23.374;2023-07-09T08:17:11;8.70;;;3.80;;
31872;SDS011;22407;42.820;23.374;2023-07-09T08:19:43;10.70;;;3.87;;
31872;SDS011;22407;42.820;23.374;2023-07-09T08:22:09;10.23;;;3.90;;
31872;SDS011;22407;42.820;23.374;2023-07-09T08:24:34;8.63;;;3.70;;
31872;SDS011;22407;42.820;23.374;2023-07-09T08:27:00;8.23;;;3.80;;
31872;SDS011;22407;42.820;23.374;2023-07-09T08:29:25;7.23;;;3.77;;
31872;SDS011;22407;42.820;23.374;2023-07-09T08:31:50;8.30;;;3.77;;
31872;SDS011;22407;42.820;23.374;2023-07-09T08:34:15;7.23;;;3.77;;
31872;SDS011;22407;42.820;23.374;2023-07-09T08:36:41;9.23;;;4.03;;
31872;SDS011;22407;42.820;23.374;2023-07-09T08:39:06;8.30;;;3.67;;
31872;SDS011;22407;42.820;23.374;2023-07-09T08:49:19;8.70;;;3.50;;
31872;SDS011;22407;42.820;23.374;2023-07-09T08:51:45;7.23;;;3.30;;
31872;SDS011;22407;42.820;23.374;2023-07-09T08:54:20;8.88;;;3.58;;
31872;SDS011;22407;42.820;23.374;2023-07-09T08:56:48;7.43;;;3.40;;
31872;SDS011;22407;42.820;23.374;2023-07-09T08:59:14;8.05;;;3.38;;
31872;SDS011;22407;42.820;23.374;2023-07-09T09:01:42;7.53;;;3.60;;
31872;SDS011;22407;42.820;23.374;2023-07-09T09:04:24;8.98;;;3.60;;
31872;SDS011;22407;42.820;23.374;2023-07-09T09:09:44;7.30;;;3.17;;
31872;SDS011;22407;42.820;23.374;2023-07-09T09:12:15;10.20;;;3.55;;
31872;SDS011;22407;42.820;23.374;2023-07-09T09:14:44;7.60;;;3.50;;
31872;SDS011;22407;42.820;23.374;2023-07-09T09:17:14;7.28;;;3.35;;
31872;SDS011;22407;42.820;23.374;2023-07-09T09:19:45;8.10;;;3.63;;
31872;SDS011;22407;42.820;23.374;2023-07-09T09:22:11;8.00;;;3.60;;
31872;SDS011;22407;42.820;23.374;2023-07-09T09:27:23;8.27;;;3.47;;
31872;SDS011;22407;42.820;23.374;2023-07-09T09:29:48;10.10;;;3.50;;
31872;SDS011;22407;42.820;23.374;2023-07-09T09:32:38;8.30;;;3.40;;
31872;SDS011;22407;42.820;23.374;2023-07-09T09:34:59;8.25;;;3.65;;
31872;SDS011;22407;42.820;23.374;2023-07-09T09:39:49;9.87;;;3.90;;
31872;SDS011;22407;42.820;23.374;2023-07-09T09:42:15;8.03;;;3.63;;
31872;SDS011;22407;42.820;23.374;2023-07-09T09:44:43;7.30;;;3.40;;
31872;SDS011;22407;42.820;23.374;2023-07-09T09:47:09;7.85;;;3.78;;
31872;SDS011;22407;42.820;23.374;2023-07-09T09:49:38;7.50;;;3.55;;
31872;SDS011;22407;42.820;23.374;2023-07-09T09:52:06;9.25;;;3.67;;
31872;SDS011;22407;42.820;23.374;2023-07-09T09:54:35;8.07;;;3.50;;
31872;SDS011;22407;42.820;23.374;2023-07-09T09:57:13;7.45;;;3.30;;
31872;SDS011;22407;42.820;23.374;2023-07-09T09:59:39;8.50;;;3.50;;
31872;SDS011;22407;42.820;23.374;2023-07-09T10:02:12;7.67;;;3.70;;
31872;SDS011;22407;42.820;23.374;2023-07-09T10:04:39;6.95;;;3.42;;
31872;SDS011;22407;42.820;23.374;2023-07-09T10:07:05;8.00;;;3.40;;
31872;SDS011;22407;42.820;23.374;2023-07-09T10:11:58;7.70;;;3.60;;
31872;SDS011;22407;42.820;23.374;2023-07-09T10:17:00;7.32;;;3.80;;
31872;SDS011;22407;42.820;23.374;2023-07-09T10:19:40;7.43;;;3.60;;
31872;SDS011;22407;42.820;23.374;2023-07-09T10:22:11;8.00;;;3.40;;
31872;SDS011;22407;42.820;23.374;2023-07-09T10:30:08;9.40;;;4.27;;
31872;SDS011;22407;42.820;23.374;2023-07-09T10:32:42;8.85;;;3.60;;
31872;SDS011;22407;42.820;23.374;2023-07-09T10:35:18;12.32;;;5.35;;
31872;SDS011;22407;42.820;23.374;2023-07-09T10:37:50;10.13;;;4.17;;
31872;SDS011;22407;42.820;23.374;2023-07-09T10:40:20;10.77;;;4.60;;
31872;SDS011;22407;42.820;23.374;2023-07-09T10:42:48;9.10;;;3.90;;
31872;SDS011;22407;42.820;23.374;2023-07-09T10:45:28;9.18;;;3.50;;
31872;SDS011;22407;42.820;23.374;2023-07-09T10:50:43;7.57;;;3.80;;
31872;SDS011;22407;42.820;23.374;2023-07-09T10:58:04;8.95;;;4.00;;
31872;SDS011;22407;42.820;23.374;2023-07-09T11:00:38;8.80;;;4.07;;
31872;SDS011;22407;42.820;23.374;2023-07-09T11:05:36;11.18;;;4.93;;
31872;SDS011;22407;42.820;23.374;2023-07-09T11:10:49;7.53;;;3.85;;
31872;SDS011;22407;42.820;23.374;2023-07-09T11:13:16;8.23;;;3.95;;
31872;SDS011;22407;42.820;23.374;2023-07-09T11:15:44;6.70;;;3.60;;
31872;SDS011;22407;42.820;23.374;2023-07-09T11:18:14;8.75;;;3.85;;
31872;SDS011;22407;42.820;23.374;2023-07-09T11:20:45;8.32;;;3.50;;
31872;SDS011;22407;42.820;23.374;2023-07-09T11:23:18;8.10;;;3.70;;
31872;SDS011;22407;42.820;23.374;2023-07-09T11:25:45;7.68;;;3.55;;
31872;SDS011;22407;42.820;23.374;2023-07-09T11:28:10;8.18;;;3.40;;
31872;SDS011;22407;42.820;23.374;2023-07-09T11:30:53;6.75;;;3.47;;
31872;SDS011;22407;42.820;23.374;2023-07-09T11:33:19;7.78;;;3.63;;
31872;SDS011;22407;42.820;23.374;2023-07-09T11:36:28;7.25;;;3.72;;
31872;SDS011;22407;42.820;23.374;2023-07-09T11:38:40;7.40;;;3.60;;
31872;SDS011;22407;42.820;23.374;2023-07-09T11:43:50;7.57;;;3.53;;
31872;SDS011;22407;42.820;23.374;2023-07-09T11:46:20;7.03;;;3.43;;
31872;SDS011;22407;42.820;23.374;2023-07-09T11:48:46;7.40;;;3.60;;
31872;SDS011;22407;42.820;23.374;2023-07-09T11:51:14;9.23;;;3.08;;
31872;SDS011;22407;42.820;23.374;2023-07-09T11:53:48;8.48;;;3.50;;
31872;SDS011;22407;42.820;23.374;2023-07-09T11:56:14;6.95;;;3.58;;
31872;SDS011;22407;42.820;23.374;2023-07-09T11:58:54;7.45;;;3.58;;
31872;SDS011;22407;42.820;23.374;2023-07-09T12:01:21;7.90;;;3.60;;
31872;SDS011;22407;42.820;23.374;2023-07-09T12:03:47;7.40;;;3.30;;
31872;SDS011;22407;42.820;23.374;2023-07-09T12:06:17;7.70;;;3.40;;
31872;SDS011;22407;42.820;23.374;2023-07-09T12:08:43;7.75;;;3.88;;
31872;SDS011;22407;42.820;23.374;2023-07-09T12:11:19;6.97;;;3.40;;
31872;SDS011;22407;42.820;23.374;2023-07-09T12:13:44;6.60;;;3.67;;
31872;SDS011;22407;42.820;23.374;2023-07-09T12:16:23;7.53;;;3.60;;
31872;SDS011;22407;42.820;23.374;2023-07-09T12:18:49;7.60;;;3.80;;
31872;SDS011;22407;42.820;23.374;2023-07-09T12:21:14;7.00;;;3.80;;
31872;SDS011;22407;42.820;23.374;2023-07-09T12:23:40;7.70;;;3.70;;
31872;SDS011;22407;42.820;23.374;2023-07-09T12:26:05;7.10;;;3.60;;
31872;SDS011;22407;42.820;23.374;2023-07-09T12:28:31;7.68;;;3.88;;
31872;SDS011;22407;42.820;23.374;2023-07-09T12:30:56;6.73;;;3.70;;
31872;SDS011;22407;42.820;23.374;2023-07-09T12:33:23;7.60;;;3.77;;
31872;SDS011;22407;42.820;23.374;2023-07-09T12:35:49;7.80;;;3.60;;
31872;SDS011;22407;42.820;23.374;2023-07-09T12:38:21;9.05;;;3.90;;
31872;SDS011;22407;42.820;23.374;2023-07-09T12:40:47;7.78;;;3.60;;
31872;SDS011;22407;42.820;23.374;2023-07-09T12:43:13;6.65;;;3.58;;
31872;SDS011;22407;42.820;23.374;2023-07-09T12:45:38;8.27;;;3.60;;
31872;SDS011;22407;42.820;23.374;2023-07-09T12:48:03;6.70;;;3.80;;
31872;SDS011;22407;42.820;23.374;2023-07-09T12:50:33;6.80;;;3.73;;
31872;SDS011;22407;42.820;23.374;2023-07-09T12:53:15;6.97;;;3.60;;
31872;SDS011;22407;42.820;23.374;2023-07-09T12:55:41;7.47;;;3.70;;
31872;SDS011;22407;42.820;23.374;2023-07-09T12:58:18;8.02;;;3.45;;
31872;SDS011;22407;42.820;23.374;2023-07-09T13:00:47;7.28;;;3.33;;
31872;SDS011;22407;42.820;23.374;2023-07-09T13:03:16;8.82;;;3.90;;
31872;SDS011;22407;42.820;23.374;2023-07-09T13:05:50;7.10;;;3.50;;
31872;SDS011;22407;42.820;23.374;2023-07-09T13:08:16;7.88;;;3.60;;
31872;SDS011;22407;42.820;23.374;2023-07-09T13:10:41;6.95;;;3.60;;
31872;SDS011;22407;42.820;23.374;2023-07-09T13:13:10;6.47;;;3.47;;
31872;SDS011;22407;42.820;23.374;2023-07-09T13:18:03;6.77;;;3.60;;
31872;SDS011;22407;42.820;23.374;2023-07-09T13:20:29;7.30;;;3.55;;
31872;SDS011;22407;42.820;23.374;2023-07-09T13:22:55;6.60;;;3.20;;
31872;SDS011;22407;42.820;23.374;2023-07-09T13:25:21;6.60;;;3.63;;
31872;SDS011;22407;42.820;23.374;2023-07-09T13:27:46;7.63;;;3.60;;
31872;SDS011;22407;42.820;23.374;2023-07-09T13:30:11;7.23;;;3.57;;
31872;SDS011;22407;42.820;23.374;2023-07-09T13:32:37;10.32;;;3.70;;
31872;SDS011;22407;42.820;23.374;2023-07-09T13:35:02;8.33;;;3.73;;
31872;SDS011;22407;42.820;23.374;2023-07-09T13:37:29;7.95;;;3.70;;
31872;SDS011;22407;42.820;23.374;2023-07-09T13:39:54;7.65;;;3.67;;
31872;SDS011;22407;42.820;23.374;2023-07-09T13:42:19;6.97;;;3.57;;
31872;SDS011;22407;42.820;23.374;2023-07-09T13:44:45;8.13;;;3.90;;
31872;SDS011;22407;42.820;23.374;2023-07-09T13:47:12;9.90;;;3.65;;
31872;SDS011;22407;42.820;23.374;2023-07-09T13:49:37;6.70;;;3.70;;
31872;SDS011;22407;42.820;23.374;2023-07-09T13:52:03;8.17;;;3.60;;
31872;SDS011;22407;42.820;23.374;2023-07-09T13:54:31;7.72;;;3.70;;
31872;SDS011;22407;42.820;23.374;2023-07-09T13:57:00;7.50;;;3.53;;
31872;SDS011;22407;42.820;23.374;2023-07-09T13:59:27;7.00;;;3.63;;
31872;SDS011;22407;42.820;23.374;2023-07-09T14:01:54;7.80;;;3.40;;
31872;SDS011;22407;42.820;23.374;2023-07-09T14:04:20;8.60;;;3.30;;
31872;SDS011;22407;42.820;23.374;2023-07-09T14:06:45;6.83;;;3.50;;
31872;SDS011;22407;42.820;23.374;2023-07-09T14:09:11;7.13;;;3.58;;
31872;SDS011;22407;42.820;23.374;2023-07-09T14:11:38;7.30;;;3.93;;
31872;SDS011;22407;42.820;23.374;2023-07-09T14:14:09;8.10;;;3.70;;
31872;SDS011;22407;42.820;23.374;2023-07-09T14:16:37;7.87;;;3.70;;
31872;SDS011;22407;42.820;23.374;2023-07-09T14:19:03;7.43;;;3.70;;
31872;SDS011;22407;42.820;23.374;2023-07-09T14:21:28;8.50;;;3.90;;
31872;SDS011;22407;42.820;23.374;2023-07-09T14:23:53;8.17;;;3.40;;
31872;SDS011;22407;42.820;23.374;2023-07-09T14:26:18;7.00;;;3.20;;
31872;SDS011;22407;42.820;23.374;2023-07-09T14:28:44;7.03;;;3.30;;
31872;SDS011;22407;42.820;23.374;2023-07-09T14:31:13;6.83;;;3.40;;
31872;SDS011;22407;42.820;23.374;2023-07-09T14:33:44;8.07;;;3.40;;
31872;SDS011;22407;42.820;23.374;2023-07-09T14:36:09;9.40;;;3.30;;
31872;SDS011;22407;42.820;23.374;2023-07-09T14:38:34;8.37;;;3.40;;
31872;SDS011;22407;42.820;23.374;2023-07-09T14:41:00;6.90;;;3.33;;
31872;SDS011;22407;42.820;23.374;2023-07-09T14:43:29;8.50;;;3.30;;
31872;SDS011;22407;42.820;23.374;2023-07-09T14:45:54;6.70;;;3.20;;
31872;SDS011;22407;42.820;23.374;2023-07-09T14:48:20;7.23;;;3.67;;
31872;SDS011;22407;42.820;23.374;2023-07-09T14:50:45;7.30;;;3.50;;
31872;SDS011;22407;42.820;23.374;2023-07-09T14:53:21;7.70;;;3.70;;
31872;SDS011;22407;42.820;23.374;2023-07-09T14:55:47;7.20;;;3.60;;
31872;SDS011;22407;42.820;23.374;2023-07-09T14:58:16;6.77;;;3.40;;
31872;SDS011;22407;42.820;23.374;2023-07-09T15:00:42;7.68;;;3.65;;
31872;SDS011;22407;42.820;23.374;2023-07-09T15:03:09;8.85;;;3.75;;
31872;SDS011;22407;42.820;23.374;2023-07-09T15:05:34;8.13;;;3.87;;
31872;SDS011;22407;42.820;23.374;2023-07-09T15:08:00;7.47;;;3.53;;
31872;SDS011;22407;42.820;23.374;2023-07-09T15:10:26;7.30;;;3.63;;
31872;SDS011;22407;42.820;23.374;2023-07-09T15:12:54;8.48;;;3.78;;
31872;SDS011;22407;42.820;23.374;2023-07-09T15:15:22;8.60;;;3.70;;